createdAt,value
2022-10-16T00:01:42.402Z,3.83
2022-10-16T00:04:11.637Z,6.47
2022-10-16T00:06:39.145Z,5.88
2022-10-16T00:09:07.042Z,5.15
2022-10-16T00:11:38.926Z,4.35
2022-10-16T00:14:09.385Z,4.57
2022-10-16T00:16:36.430Z,5.20
2022-10-16T00:19:05.653Z,6.35
2022-10-16T00:21:36.940Z,4.55
2022-10-16T00:24:11.454Z,5.40
2022-10-16T00:26:41.969Z,3.70
2022-10-16T00:29:10.002Z,7.07
2022-10-16T00:31:41.014Z,4.93
2022-10-16T00:34:08.585Z,4.28
2022-10-16T00:36:36.666Z,4.25
2022-10-16T00:39:04.492Z,5.78
2022-10-16T00:41:32.954Z,5.45
2022-10-16T00:44:03.326Z,5.10
2022-10-16T00:46:49.001Z,3.33
2022-10-16T00:49:17.786Z,2.50
2022-10-16T00:51:47.913Z,2.58
2022-10-16T00:54:30.542Z,4.55
2022-10-16T00:57:02.586Z,6.78
2022-10-16T00:59:33.217Z,2.47
2022-10-16T01:02:00.635Z,4.07
2022-10-16T01:04:39.348Z,3.00
2022-10-16T01:07:48.228Z,3.42
2022-10-16T01:10:54.878Z,3.92
2022-10-16T01:13:51.381Z,4.85
2022-10-16T01:16:26.211Z,4.88
2022-10-16T01:19:07.980Z,6.38
2022-10-16T01:21:40.490Z,2.53
2022-10-16T01:24:30.004Z,2.53
2022-10-16T01:27:16.897Z,5.38
2022-10-16T01:30:05.545Z,4.35
2022-10-16T01:32:53.843Z,3.97
2022-10-16T01:35:49.182Z,4.15
2022-10-16T01:38:19.834Z,3.53
2022-10-16T01:40:51.719Z,4.03
2022-10-16T01:43:26.231Z,2.97
2022-10-16T01:45:53.890Z,3.92
2022-10-16T01:48:24.941Z,3.15
2022-10-16T01:51:16.316Z,2.83
2022-10-16T01:53:57.355Z,5.78
2022-10-16T01:56:27.110Z,4.50
2022-10-16T01:59:05.302Z,6.20
2022-10-16T02:01:35.599Z,9.25
2022-10-16T02:04:11.069Z,5.63
2022-10-16T02:06:38.788Z,4.75
2022-10-16T02:09:09.684Z,2.65
2022-10-16T02:11:37.746Z,2.55
2022-10-16T02:14:07.563Z,3.30
2022-10-16T02:16:40.376Z,3.63
2022-10-16T02:19:08.813Z,3.30
2022-10-16T02:21:46.483Z,5.28
2022-10-16T02:24:52.994Z,4.07
2022-10-16T02:27:36.822Z,6.55
2022-10-16T02:30:21.852Z,8.50
2022-10-16T02:32:53.309Z,4.20
2022-10-16T02:35:23.172Z,5.22
2022-10-16T02:37:52.097Z,5.70
2022-10-16T02:40:25.196Z,5.30
2022-10-16T02:42:56.222Z,3.30
2022-10-16T02:45:26.558Z,6.35
2022-10-16T02:47:54.722Z,4.15
2022-10-16T02:50:24.291Z,3.47
2022-10-16T02:52:52.712Z,5.90
2022-10-16T02:55:20.571Z,4.32
2022-10-16T02:57:49.342Z,7.22
2022-10-16T03:00:19.356Z,4.45
2022-10-16T03:02:48.979Z,8.07
2022-10-16T03:05:18.890Z,7.60
2022-10-16T03:07:46.937Z,4.55
2022-10-16T03:10:14.791Z,3.85
2022-10-16T03:12:42.595Z,4.63
2022-10-16T03:15:12.743Z,6.13
2022-10-16T03:17:40.086Z,4.40
2022-10-16T03:20:09.022Z,4.70
2022-10-16T03:22:38.424Z,5.68
2022-10-16T03:25:08.374Z,5.10
2022-10-16T03:27:36.805Z,6.40
2022-10-16T03:30:05.700Z,5.53
2022-10-16T03:35:06.562Z,6.22
2022-10-16T03:37:35.871Z,3.70
2022-10-16T03:40:06.488Z,5.97
2022-10-16T03:42:36.155Z,6.07
2022-10-16T03:45:03.973Z,3.50
2022-10-16T03:47:31.507Z,3.85
2022-10-16T03:50:00.311Z,4.47
2022-10-16T03:52:28.107Z,6.72
2022-10-16T03:54:57.044Z,2.83
2022-10-16T03:57:25.271Z,2.88
2022-10-16T03:59:53.439Z,3.88
2022-10-16T04:02:24.136Z,2.75
2022-10-16T04:04:52.844Z,5.05
2022-10-16T04:07:21.308Z,6.78
2022-10-16T04:09:49.907Z,3.50
2022-10-16T04:12:18.350Z,3.70
2022-10-16T04:14:46.666Z,5.25
2022-10-16T04:17:13.903Z,2.97
2022-10-16T04:19:43.117Z,6.75
2022-10-16T04:22:12.305Z,3.40
2022-10-16T04:24:40.565Z,3.33
2022-10-16T04:27:11.164Z,5.22
2022-10-16T04:29:42.172Z,3.25
2022-10-16T04:32:12.930Z,2.25
2022-10-16T04:34:44.390Z,3.92
2022-10-16T04:37:14.833Z,4.28
2022-10-16T04:39:46.285Z,2.65
2022-10-16T04:42:15.985Z,2.20
2022-10-16T04:44:45.689Z,2.83
2022-10-16T04:47:14.218Z,2.20
2022-10-16T04:49:43.368Z,2.15
2022-10-16T04:52:11.297Z,2.30
2022-10-16T04:54:39.066Z,4.65
2022-10-16T04:57:09.668Z,2.17
2022-10-16T04:59:39.761Z,5.32
2022-10-16T05:02:08.695Z,4.00
2022-10-16T05:04:40.510Z,4.18
2022-10-16T05:07:11.427Z,3.60
2022-10-16T05:09:40.261Z,4.20
2022-10-16T05:12:13.234Z,3.58
2022-10-16T05:14:44.370Z,3.50
2022-10-16T05:17:14.036Z,3.90
2022-10-16T05:19:45.202Z,4.82
2022-10-16T05:22:16.311Z,7.03
2022-10-16T05:24:45.693Z,8.73
2022-10-16T05:27:20.172Z,7.38
2022-10-16T05:29:48.784Z,7.43
2022-10-16T05:32:17.308Z,7.68
2022-10-16T05:34:47.929Z,6.65
2022-10-16T05:37:17.507Z,7.75
2022-10-16T05:39:49.764Z,7.80
2022-10-16T05:42:19.575Z,7.85
2022-10-16T05:44:49.047Z,7.28
2022-10-16T05:47:17.986Z,11.70
2022-10-16T05:49:45.992Z,7.40
2022-10-16T05:52:13.829Z,8.95
2022-10-16T05:54:41.694Z,7.97
2022-10-16T05:57:12.362Z,6.25
2022-10-16T05:59:43.739Z,5.00
2022-10-16T06:02:17.958Z,6.13
2022-10-16T06:04:46.269Z,6.40
2022-10-16T06:07:16.797Z,5.68
2022-10-16T06:09:45.191Z,5.03
2022-10-16T06:12:18.069Z,4.78
2022-10-16T06:14:51.489Z,4.15
2022-10-16T06:17:20.276Z,3.78
2022-10-16T06:19:48.781Z,3.63
2022-10-16T06:22:18.125Z,2.58
2022-10-16T06:24:48.800Z,2.75
2022-10-16T06:27:19.964Z,8.15
2022-10-16T06:29:50.522Z,4.65
2022-10-16T06:32:18.789Z,3.13
2022-10-16T06:34:49.766Z,4.97
2022-10-16T06:37:20.514Z,5.80
2022-10-16T06:39:52.287Z,3.97
2022-10-16T06:42:26.034Z,4.13
2022-10-16T06:47:26.683Z,2.78
2022-10-16T06:49:57.588Z,6.20
2022-10-16T06:52:30.410Z,3.17
2022-10-16T06:54:59.174Z,2.50
2022-10-16T06:57:30.937Z,4.32
2022-10-16T07:00:02.070Z,2.08
2022-10-16T07:02:32.289Z,7.68
2022-10-16T07:05:04.638Z,7.93
2022-10-16T07:07:38.682Z,6.65
2022-10-16T07:10:08.727Z,3.13
2022-10-16T07:12:41.147Z,1.80
2022-10-16T07:15:09.136Z,1.55
2022-10-16T07:17:38.909Z,3.67
2022-10-16T07:20:06.393Z,2.03
2022-10-16T07:22:36.181Z,3.42
2022-10-16T07:25:09.123Z,2.15
2022-10-16T07:27:39.417Z,2.38
2022-10-16T07:30:09.310Z,3.25
2022-10-16T07:32:40.571Z,1.58
2022-10-16T07:35:09.314Z,4.03
2022-10-16T07:37:39.779Z,4.88
2022-10-16T07:40:14.663Z,2.92
2022-10-16T07:42:47.232Z,8.13
2022-10-16T07:45:16.488Z,3.53
2022-10-16T07:47:47.704Z,5.13
2022-10-16T07:50:17.338Z,3.90
2022-10-16T07:52:49.221Z,2.78
2022-10-16T07:55:20.174Z,3.95
2022-10-16T07:57:50.435Z,3.67
2022-10-16T08:00:19.358Z,2.72
2022-10-16T08:02:49.340Z,3.60
2022-10-16T08:05:20.280Z,3.20
2022-10-16T08:07:54.570Z,3.30
2022-10-16T08:10:29.214Z,4.63
2022-10-16T08:12:59.133Z,4.43
2022-10-16T08:15:28.946Z,6.45
2022-10-16T08:17:59.803Z,7.25
2022-10-16T08:20:29.658Z,4.20
2022-10-16T08:22:58.428Z,4.50
2022-10-16T08:25:26.449Z,2.03
2022-10-16T08:27:56.528Z,2.50
2022-10-16T08:30:28.271Z,3.72
2022-10-16T08:32:55.493Z,2.03
2022-10-16T08:35:24.969Z,3.75
2022-10-16T08:37:55.274Z,2.60
2022-10-16T08:40:33.757Z,3.85
2022-10-16T08:43:33.678Z,4.32
2022-10-16T08:46:41.517Z,3.22
2022-10-16T08:49:16.861Z,2.33
2022-10-16T08:51:51.150Z,2.60
2022-10-16T08:54:42.386Z,3.47
2022-10-16T08:57:23.214Z,4.18
2022-10-16T08:59:56.213Z,4.30
2022-10-16T09:02:54.843Z,6.47
2022-10-16T09:06:00.555Z,7.07
2022-10-16T09:08:39.700Z,3.80
2022-10-16T09:11:32.263Z,3.72
2022-10-16T09:14:38.669Z,5.38
2022-10-16T09:17:43.937Z,5.07
2022-10-16T09:20:28.925Z,2.93
2022-10-16T09:23:16.197Z,4.50
2022-10-16T09:25:46.258Z,11.10
2022-10-16T09:28:13.973Z,6.55
2022-10-16T09:30:44.640Z,3.70
2022-10-16T09:33:14.263Z,3.70
2022-10-16T09:35:47.986Z,1.60
2022-10-16T09:38:36.193Z,3.58
2022-10-16T09:41:16.070Z,8.52
2022-10-16T09:43:54.279Z,1.80
2022-10-16T09:46:26.486Z,3.55
2022-10-16T09:48:56.288Z,2.40
2022-10-16T09:51:31.049Z,2.08
2022-10-16T09:54:22.166Z,3.65
2022-10-16T09:56:53.506Z,2.33
2022-10-16T09:59:25.066Z,2.55
2022-10-16T10:01:54.629Z,2.58
2022-10-16T10:04:26.899Z,2.92
2022-10-16T10:06:58.055Z,1.73
2022-10-16T10:09:26.844Z,1.40
2022-10-16T10:12:06.397Z,0.95
2022-10-16T10:14:42.080Z,2.55
2022-10-16T10:17:24.073Z,0.90
2022-10-16T10:19:58.704Z,0.68
2022-10-16T10:22:44.448Z,1.55
2022-10-16T10:26:07.347Z,0.88
2022-10-16T10:29:05.529Z,0.80
2022-10-16T10:31:54.418Z,0.85
2022-10-16T10:35:23.188Z,3.30
2022-10-16T10:38:36.155Z,0.70
2022-10-16T10:41:15.810Z,0.60
2022-10-16T10:43:46.283Z,1.95
2022-10-16T10:46:35.487Z,0.75
2022-10-16T10:49:49.242Z,0.60
2022-10-16T10:52:41.392Z,2.40
2022-10-16T10:55:43.740Z,1.42
2022-10-16T10:59:01.454Z,1.35
2022-10-16T11:01:44.704Z,1.48
2022-10-16T11:04:36.160Z,1.88
2022-10-16T11:07:26.854Z,1.27
2022-10-16T11:10:07.586Z,1.17
2022-10-16T11:12:43.447Z,0.50
2022-10-16T11:15:24.276Z,0.68
2022-10-16T11:18:29.622Z,0.50
2022-10-16T11:21:02.105Z,1.40
2022-10-16T11:23:54.981Z,0.47
2022-10-16T11:26:29.900Z,1.52
2022-10-16T11:29:01.122Z,0.57
2022-10-16T11:34:32.953Z,1.17
2022-10-16T11:37:11.224Z,1.25
2022-10-16T11:39:40.170Z,0.95
2022-10-16T11:42:45.542Z,1.00
2022-10-16T11:45:40.424Z,2.50
2022-10-16T11:48:24.796Z,0.45
2022-10-16T11:50:56.968Z,0.63
2022-10-16T11:53:47.105Z,1.60
2022-10-16T11:56:21.318Z,0.28
2022-10-16T11:58:56.105Z,0.40
2022-10-16T12:01:54.375Z,0.63
2022-10-16T12:04:38.454Z,0.93
2022-10-16T12:07:11.285Z,2.85
2022-10-16T12:09:40.768Z,1.00
2022-10-16T12:12:33.029Z,1.75
2022-10-16T12:15:29.821Z,2.72
2022-10-16T12:18:05.112Z,1.77
2022-10-16T12:20:38.703Z,2.65
2022-10-16T12:23:09.522Z,1.10
2022-10-16T12:25:48.123Z,2.03
2022-10-16T12:28:30.384Z,0.88
2022-10-16T12:31:10.584Z,0.68
2022-10-16T12:33:59.463Z,1.58
2022-10-16T12:36:45.335Z,1.65
2022-10-16T12:39:23.120Z,0.63
2022-10-16T12:42:04.598Z,1.00
2022-10-16T12:44:39.094Z,3.80
2022-10-16T12:47:22.061Z,0.45
2022-10-16T12:49:57.135Z,0.52
2022-10-16T12:52:40.940Z,0.73
2022-10-16T12:55:18.548Z,1.10
2022-10-16T12:58:26.005Z,0.30
2022-10-16T13:01:00.123Z,2.75
2022-10-16T13:03:47.500Z,0.50
2022-10-16T13:06:36.124Z,1.58
2022-10-16T13:09:43.247Z,2.50
2022-10-16T13:12:25.032Z,0.57
2022-10-16T13:15:19.497Z,0.68
2022-10-16T13:18:23.708Z,3.93
2022-10-16T13:21:06.551Z,4.20
2022-10-16T13:23:41.291Z,1.70
2022-10-16T13:26:26.220Z,1.77
2022-10-16T13:28:54.098Z,1.65
2022-10-16T13:31:25.933Z,0.60
2022-10-16T13:34:00.318Z,1.52
2022-10-16T13:36:32.241Z,2.70
2022-10-16T13:39:09.194Z,2.78
2022-10-16T13:41:36.230Z,1.00
2022-10-16T13:44:04.308Z,1.98
2022-10-16T13:46:35.746Z,1.50
2022-10-16T13:49:05.949Z,0.95
2022-10-16T13:51:34.205Z,2.20
2022-10-16T13:54:02.277Z,2.15
2022-10-16T13:56:32.721Z,1.13
2022-10-16T13:59:05.851Z,2.05
2022-10-16T14:01:45.463Z,2.03
2022-10-16T14:04:14.521Z,1.65
2022-10-16T14:06:44.905Z,1.23
2022-10-16T14:09:27.559Z,4.03
2022-10-16T14:12:01.251Z,1.25
2022-10-16T14:14:43.754Z,1.25
2022-10-16T14:17:22.311Z,1.77
2022-10-16T14:19:56.944Z,3.92
2022-10-16T14:22:31.852Z,2.60
2022-10-16T14:24:59.735Z,2.65
2022-10-16T14:27:34.649Z,1.70
2022-10-16T14:30:22.389Z,1.33
2022-10-16T14:33:05.241Z,1.92
2022-10-16T14:35:40.405Z,2.75
2022-10-16T14:38:15.935Z,2.22
2022-10-16T14:40:48.837Z,1.15
2022-10-16T14:43:23.443Z,2.40
2022-10-16T14:45:56.875Z,2.22
2022-10-16T14:48:24.022Z,3.33
2022-10-16T14:50:51.477Z,1.55
2022-10-16T14:53:19.705Z,5.28
2022-10-16T14:55:47.307Z,1.33
2022-10-16T14:58:33.240Z,2.67
2022-10-16T15:01:00.705Z,4.90
2022-10-16T15:03:28.283Z,4.43
2022-10-16T15:05:55.400Z,1.60
2022-10-16T15:08:24.289Z,1.85
2022-10-16T15:10:51.505Z,1.95
2022-10-16T15:13:18.513Z,2.88
2022-10-16T15:15:47.581Z,1.70
2022-10-16T15:18:25.152Z,2.28
2022-10-16T15:20:53.498Z,2.60
2022-10-16T15:23:23.330Z,2.30
2022-10-16T15:25:51.875Z,3.90
2022-10-16T15:28:20.141Z,4.20
2022-10-16T15:30:50.725Z,2.85
2022-10-16T15:33:20.781Z,3.97
2022-10-16T15:35:49.432Z,5.70
2022-10-16T15:38:17.643Z,4.07
2022-10-16T15:40:44.948Z,2.95
2022-10-16T15:43:13.708Z,10.80
2022-10-16T15:45:41.688Z,6.38
2022-10-16T15:48:14.038Z,4.57
2022-10-16T15:50:41.886Z,6.03
2022-10-16T15:53:09.426Z,3.70
2022-10-16T15:55:39.076Z,4.65
2022-10-16T15:58:07.064Z,4.43
2022-10-16T16:00:34.636Z,4.05
2022-10-16T16:03:03.053Z,4.20
2022-10-16T16:05:30.868Z,4.63
2022-10-16T16:07:58.739Z,6.35
2022-10-16T16:10:27.266Z,6.53
2022-10-16T16:12:54.481Z,4.68
2022-10-16T16:15:22.894Z,5.50
2022-10-16T16:17:50.962Z,4.50
2022-10-16T16:20:18.302Z,3.55
2022-10-16T16:22:45.383Z,7.97
2022-10-16T16:25:12.718Z,5.45
2022-10-16T16:27:39.965Z,4.15
2022-10-16T16:30:08.936Z,5.28
2022-10-16T16:32:36.684Z,5.68
2022-10-16T16:35:05.071Z,5.25
2022-10-16T16:37:33.022Z,5.68
2022-10-16T16:40:03.665Z,7.00
2022-10-16T16:42:32.802Z,4.90
2022-10-16T16:45:03.317Z,7.50
2022-10-16T16:47:34.352Z,3.40
2022-10-16T16:50:06.779Z,3.80
2022-10-16T16:52:37.497Z,3.55
2022-10-16T16:55:06.745Z,5.18
2022-10-16T16:57:34.269Z,3.97
2022-10-16T17:00:02.409Z,3.75
2022-10-16T17:02:33.206Z,5.15
2022-10-16T17:05:04.689Z,3.50
2022-10-16T17:07:35.779Z,5.20
2022-10-16T17:10:04.780Z,6.43
2022-10-16T17:12:33.847Z,4.25
2022-10-16T17:15:02.754Z,5.18
2022-10-16T17:17:31.983Z,5.90
2022-10-16T17:20:03.796Z,5.97
2022-10-16T17:22:33.343Z,3.45
2022-10-16T17:25:02.290Z,5.95
2022-10-16T17:27:32.720Z,3.03
2022-10-16T17:30:01.048Z,4.07
2022-10-16T17:32:29.536Z,3.22
2022-10-16T17:34:57.473Z,4.18
2022-10-16T17:37:25.002Z,7.00
2022-10-16T17:39:53.858Z,3.55
2022-10-16T17:42:23.047Z,4.55
2022-10-16T17:44:50.842Z,3.97
2022-10-16T17:47:18.440Z,5.82
2022-10-16T17:49:45.611Z,3.22
2022-10-16T17:52:16.344Z,3.75
2022-10-16T17:54:46.062Z,3.22
2022-10-16T17:57:16.149Z,4.55
2022-10-16T17:59:46.298Z,6.53
2022-10-16T18:02:16.037Z,5.35
2022-10-16T18:04:46.374Z,5.65
2022-10-16T18:07:18.090Z,6.53
2022-10-16T18:10:10.288Z,5.90
2022-10-16T18:12:36.887Z,7.90
2022-10-16T18:15:06.622Z,8.70
2022-10-16T18:17:40.573Z,5.38
2022-10-16T18:20:08.463Z,3.30
2022-10-16T18:22:37.746Z,7.90
2022-10-16T18:25:07.375Z,4.57
2022-10-16T18:27:37.103Z,2.88
2022-10-16T18:30:08.789Z,3.55
2022-10-16T18:32:36.095Z,3.50
2022-10-16T18:35:05.599Z,7.47
2022-10-16T18:37:38.807Z,6.90
2022-10-16T18:40:10.017Z,6.70
2022-10-16T18:42:41.085Z,6.30
2022-10-16T18:45:13.940Z,8.07
2022-10-16T18:47:46.027Z,4.35
2022-10-16T18:50:17.049Z,5.63
2022-10-16T18:52:49.733Z,8.20
2022-10-16T18:55:21.066Z,5.57
2022-10-16T18:57:53.419Z,4.28
2022-10-16T19:00:22.347Z,5.47
2022-10-16T19:02:51.739Z,4.43
2022-10-16T19:05:23.720Z,6.00
2022-10-16T19:07:53.406Z,7.72
2022-10-16T19:10:23.345Z,4.93
2022-10-16T19:12:52.345Z,8.48
2022-10-16T19:15:23.693Z,3.70
2022-10-16T19:17:54.856Z,7.82
2022-10-16T19:20:25.398Z,14.32
2022-10-16T19:22:59.639Z,10.90
2022-10-16T19:27:57.740Z,13.27
2022-10-16T19:30:27.374Z,10.27
2022-10-16T19:32:58.160Z,14.55
2022-10-16T19:35:27.256Z,9.43
2022-10-16T19:37:58.112Z,8.35
2022-10-16T19:40:28.942Z,11.52
2022-10-16T19:43:00.331Z,9.40
2022-10-16T19:45:32.452Z,12.85
2022-10-16T19:48:04.671Z,17.15
2022-10-16T19:50:36.307Z,13.18
2022-10-16T19:53:06.102Z,10.63
2022-10-16T19:55:37.605Z,9.82
2022-10-16T19:58:08.863Z,7.10
2022-10-16T20:00:41.063Z,11.02
2022-10-16T20:03:10.344Z,7.30
2022-10-16T20:05:39.961Z,7.65
2022-10-16T20:08:09.719Z,12.60
2022-10-16T20:10:40.418Z,9.20
2022-10-16T20:13:11.432Z,9.65
2022-10-16T20:15:41.902Z,10.40
2022-10-16T20:18:12.794Z,9.60
2022-10-16T20:20:43.626Z,9.82
2022-10-16T20:23:12.220Z,7.70
2022-10-16T20:25:44.158Z,11.73
2022-10-16T20:28:21.341Z,9.57
2022-10-16T20:30:51.634Z,7.80
2022-10-16T20:33:21.737Z,7.95
2022-10-16T20:35:52.249Z,5.38
2022-10-16T20:38:22.035Z,11.82
2022-10-16T20:40:50.693Z,11.10
2022-10-16T20:43:20.874Z,5.68
2022-10-16T20:45:49.153Z,14.13
2022-10-16T20:48:16.873Z,3.97
2022-10-16T20:50:47.359Z,7.30
2022-10-16T20:53:18.718Z,5.20
2022-10-16T20:55:52.409Z,5.32
2022-10-16T21:00:53.253Z,5.40
2022-10-16T21:03:25.133Z,10.98
2022-10-16T21:05:56.556Z,5.70
2022-10-16T21:08:30.349Z,9.40
2022-10-16T21:10:59.917Z,4.95
2022-10-16T21:13:30.749Z,9.52
2022-10-16T21:15:59.985Z,7.60
2022-10-16T21:18:28.131Z,8.32
2022-10-16T21:20:58.238Z,3.45
2022-10-16T21:23:27.258Z,4.50
2022-10-16T21:25:56.094Z,4.55
2022-10-16T21:28:30.360Z,6.60
2022-10-16T21:30:59.765Z,3.80
2022-10-16T21:33:28.977Z,5.15
2022-10-16T21:36:02.628Z,8.00
2022-10-16T21:38:30.764Z,2.80
2022-10-16T21:41:01.788Z,3.92
2022-10-16T21:43:31.563Z,5.28
2022-10-16T21:46:00.304Z,4.50
2022-10-16T21:48:31.091Z,3.67
2022-10-16T21:50:58.966Z,6.78
2022-10-16T21:53:28.920Z,7.28
2022-10-16T21:55:57.653Z,6.15
2022-10-16T21:58:27.688Z,7.03
2022-10-16T22:00:56.857Z,7.07
2022-10-16T22:03:27.826Z,8.70
2022-10-16T22:06:06.393Z,6.65
2022-10-16T22:08:40.342Z,8.75
2022-10-16T22:11:22.362Z,8.23
2022-10-16T22:13:54.273Z,4.28
2022-10-16T22:16:27.650Z,7.72
2022-10-16T22:18:58.247Z,6.28
2022-10-16T22:21:29.824Z,7.07
2022-10-16T22:23:59.510Z,6.95
2022-10-16T22:26:29.945Z,7.97
2022-10-16T22:28:59.479Z,7.85
2022-10-16T22:31:29.382Z,7.10
2022-10-16T22:34:02.842Z,9.52
2022-10-16T22:36:33.270Z,11.77
2022-10-16T22:39:01.524Z,7.45
2022-10-16T22:41:30.316Z,6.70
2022-10-16T22:44:00.799Z,8.70
2022-10-16T22:46:30.850Z,5.07
2022-10-16T22:48:59.310Z,3.60
2022-10-16T22:51:29.375Z,4.88
2022-10-16T22:53:58.907Z,6.88
2022-10-16T22:56:28.537Z,5.78
2022-10-16T22:58:58.435Z,8.48
2022-10-16T23:01:29.926Z,4.88
2022-10-16T23:03:59.879Z,5.95
2022-10-16T23:06:29.890Z,5.13
2022-10-16T23:08:59.812Z,5.38
2022-10-16T23:11:31.444Z,6.22
2022-10-16T23:14:01.127Z,6.25
2022-10-16T23:16:31.494Z,7.90
2022-10-16T23:19:03.230Z,9.48
2022-10-16T23:21:33.763Z,4.95
2022-10-16T23:24:03.580Z,8.23
2022-10-16T23:26:33.690Z,5.72
2022-10-16T23:29:04.885Z,8.15
2022-10-16T23:31:34.197Z,7.03
2022-10-16T23:34:04.444Z,5.75
2022-10-16T23:36:35.440Z,5.20
2022-10-16T23:39:06.758Z,4.22
2022-10-16T23:41:38.014Z,4.88
2022-10-16T23:44:07.882Z,5.85
2022-10-16T23:46:37.837Z,8.90
2022-10-16T23:49:11.504Z,9.52
2022-10-16T23:51:42.806Z,7.72
2022-10-16T23:54:14.432Z,6.93
2022-10-16T23:56:45.278Z,7.72
2022-10-16T23:59:17.234Z,9.23
